Time;durP1;ratioP1;P1;durP2;ratioP2;P2;SDS_P1;SDS_P2;PMS_P1;PMS_P2;Temp;Humidity;BMP_temperature;BMP_pressure;BME280_temperature;BME280_humidity;BME280_pressure;Samples;Min_cycle;Max_cycle;Signal;HPM_P1;HPM_P2
2021/03/26 00:00:20;;;;;;;7.50;1.08;;;29.20;66.40;;;;;;5069554;28;20461;-82
2021/03/26 00:02:47;;;;;;;4.63;0.90;;;29.20;64.60;;;;;;5068963;28;20386;-81
2021/03/26 00:05:17;;;;;;;5.47;1.15;;;29.50;65.40;;;;;;5069414;28;20891;-81
2021/03/26 00:07:50;;;;;;;3.72;0.80;;;29.40;57.80;;;;;;5068793;28;20558;-81
2021/03/26 00:10:21;;;;;;;7.55;1.90;;;29.50;60.40;;;;;;5068859;28;20406;-81
2021/03/26 00:12:48;;;;;;;3.55;1.00;;;29.90;61.00;;;;;;5069295;28;20398;-82
2021/03/26 00:15:16;;;;;;;6.90;1.30;;;29.60;61.00;;;;;;5069078;28;20413;-82
2021/03/26 00:17:43;;;;;;;4.57;1.20;;;29.50;61.00;;;;;;5068587;28;20382;-81
2021/03/26 00:20:11;;;;;;;4.40;0.90;;;29.60;63.70;;;;;;5069310;28;20420;-82
2021/03/26 00:22:38;;;;;;;5.57;1.23;;;29.60;57.00;;;;;;5069096;28;20879;-82
2021/03/26 00:25:08;;;;;;;4.63;1.20;;;29.20;57.70;;;;;;5067430;28;20465;-82
2021/03/26 00:27:35;;;;;;;2.88;0.90;;;28.80;60.00;;;;;;5069649;28;20480;-83
2021/03/26 00:30:06;;;;;;;4.57;1.00;;;28.60;60.20;;;;;;5068533;28;20386;-80
2021/03/26 00:32:37;;;;;;;4.93;1.15;;;28.20;60.30;;;;;;5068834;28;20855;-81
2021/03/26 00:35:10;;;;;;;4.50;1.20;;;28.10;62.50;;;;;;5067314;28;20386;-81
2021/03/26 00:37:38;;;;;;;3.17;1.00;;;28.30;61.40;;;;;;5067679;28;20416;-81
2021/03/26 00:40:10;;;;;;;5.05;1.15;;;28.40;60.00;;;;;;5068410;28;20492;-81
2021/03/26 00:42:38;;;;;;;5.00;1.00;;;28.30;61.60;;;;;;5068165;28;20451;-81
2021/03/26 00:45:10;;;;;;;3.80;1.17;;;28.00;61.60;;;;;;5083978;28;20421;-82
2021/03/26 00:47:37;;;;;;;5.47;1.30;;;26.90;62.60;;;;;;5075044;28;20473;-81
2021/03/26 00:50:14;;;;;;;2.10;0.90;;;25.70;63.50;;;;;;5065909;28;20384;-81
2021/03/26 00:52:47;;;;;;;3.40;1.08;;;25.20;67.10;;;;;;5067115;28;20424;-81
2021/03/26 00:55:15;;;;;;;4.28;1.02;;;25.40;66.20;;;;;;5068636;28;20375;-81
2021/03/26 00:57:42;;;;;;;4.05;1.10;;;25.40;70.00;;;;;;5067902;28;20398;-81
2021/03/26 01:00:17;;;;;;;3.50;0.90;;;25.90;66.90;;;;;;5068472;28;20413;-81
2021/03/26 01:02:47;;;;;;;4.60;1.10;;;25.70;68.10;;;;;;5064916;28;20421;-81
2021/03/26 01:08:29;;;;;;;5.63;1.08;;;25.40;65.80;;;;;;5053202;28;20385;-81
2021/03/26 01:14:24;;;;;;;4.70;1.00;;;23.50;73.00;;;;;;5041213;28;20389;-82
2021/03/26 01:16:52;;;;;;;3.50;1.10;;;22.20;78.50;;;;;;5067780;28;20416;-80
2021/03/26 01:19:20;;;;;;;5.00;1.23;;;21.70;80.30;;;;;;5066497;28;20386;-82
2021/03/26 01:21:47;;;;;;;4.35;1.20;;;21.80;91.80;;;;;;5065288;28;20408;-81
2021/03/26 01:24:16;;;;;;;4.15;1.00;;;22.40;85.40;;;;;;5068103;28;20411;-81
2021/03/26 01:26:43;;;;;;;4.85;1.10;;;22.70;83.50;;;;;;5077857;28;20447;-81
2021/03/26 01:29:11;;;;;;;7.10;1.35;;;22.60;89.50;;;;;;5067660;28;20798;-81
2021/03/26 01:31:41;;;;;;;4.85;1.30;;;22.70;87.30;;;;;;5066658;28;20765;-80
2021/03/26 01:34:08;;;;;;;2.97;0.90;;;22.90;89.70;;;;;;5063232;28;20394;-81
2021/03/26 01:36:36;;;;;;;3.08;0.98;;;22.80;82.40;;;;;;5067290;28;20402;-81
2021/03/26 01:39:05;;;;;;;5.20;0.88;;;22.70;84.60;;;;;;5067211;28;20967;-81
2021/03/26 01:41:39;;;;;;;4.53;0.90;;;22.60;84.30;;;;;;5068450;28;20437;-81
2021/03/26 01:44:08;;;;;;;4.03;0.80;;;22.30;83.10;;;;;;5068128;28;20374;-80
2021/03/26 01:46:39;;;;;;;3.78;1.00;;;22.10;84.10;;;;;;5074095;28;20752;-80
2021/03/26 01:49:08;;;;;;;6.87;1.20;;;22.30;85.00;;;;;;5063663;28;20393;-81
2021/03/26 01:51:38;;;;;;;3.10;0.95;;;22.40;87.70;;;;;;5078109;28;20824;-80
2021/03/26 01:54:07;;;;;;;5.50;0.90;;;22.40;87.50;;;;;;5067536;28;20700;-81
2021/03/26 01:56:50;;;;;;;4.05;0.90;;;22.30;88.30;;;;;;5048439;28;20907;-82
2021/03/26 01:59:17;;;;;;;3.80;0.98;;;22.20;88.70;;;;;;5061133;28;20837;-82
2021/03/26 02:01:56;;;;;;;4.78;1.02;;;22.20;87.50;;;;;;5059281;28;20389;-83
2021/03/26 02:04:31;;;;;;;2.53;1.25;;;22.40;91.70;;;;;;5066219;28;20384;-82
2021/03/26 02:06:59;;;;;;;3.65;1.10;;;22.70;91.20;;;;;;5086101;28;20681;-81
2021/03/26 02:09:39;;;;;;;6.88;1.23;;;22.90;91.90;;;;;;5075339;28;20435;-81
2021/03/26 02:12:25;;;;;;;5.45;1.45;;;23.00;90.00;;;;;;5065771;28;20414;-82
2021/03/26 02:14:59;;;;;;;3.85;1.00;;;23.20;92.20;;;;;;5065778;28;20398;-82
2021/03/26 02:17:32;;;;;;;4.32;0.90;;;23.20;86.70;;;;;;5065098;28;20396;-81
2021/03/26 02:20:06;;;;;;;7.70;1.20;;;23.20;89.80;;;;;;5065982;28;20901;-83
2021/03/26 02:22:34;;;;;;;4.00;1.10;;;23.00;82.60;;;;;;5064324;28;20386;-82
2021/03/26 02:25:03;;;;;;;6.70;1.10;;;22.90;87.90;;;;;;5065472;28;20457;-82
2021/03/26 02:27:34;;;;;;;3.17;0.90;;;22.80;87.40;;;;;;5066233;28;20470;-81
2021/03/26 02:30:27;;;;;;;4.67;1.00;;;22.90;85.10;;;;;;5066997;28;20456;-80
2021/03/26 02:32:55;;;;;;;6.40;1.25;;;23.00;85.40;;;;;;5059470;28;20420;-81
2021/03/26 02:35:41;;;;;;;4.97;1.20;;;22.70;85.70;;;;;;5064630;28;20790;-81
2021/03/26 02:38:33;;;;;;;4.15;1.13;;;22.50;88.20;;;;;;5066602;28;20382;-81
2021/03/26 02:41:12;;;;;;;5.73;1.30;;;22.30;88.60;;;;;;5069103;28;20448;-81
2021/03/26 02:44:07;;;;;;;4.00;1.00;;;22.20;91.20;;;;;;5075443;28;21068;-81
2021/03/26 02:46:57;;;;;;;3.78;1.10;;;22.20;86.90;;;;;;5070712;28;20409;-81
2021/03/26 02:49:31;;;;;;;4.70;1.17;;;22.10;87.20;;;;;;5072810;28;20952;-80
2021/03/26 02:52:25;;;;;;;3.63;1.20;;;22.20;90.20;;;;;;5072299;28;20398;-80
2021/03/26 02:55:07;;;;;;;4.03;1.10;;;22.50;87.50;;;;;;5071864;28;20474;-82
2021/03/26 02:57:45;;;;;;;4.28;1.15;;;22.40;86.20;;;;;;5068334;28;20405;-80
2021/03/26 03:00:38;;;;;;;3.70;0.93;;;22.30;85.20;;;;;;5067795;28;20386;-80
2021/03/26 03:03:09;;;;;;;2.53;0.95;;;22.30;88.80;;;;;;5069937;28;20757;-79
2021/03/26 03:05:43;;;;;;;4.40;1.20;;;22.30;90.70;;;;;;5071495;28;20410;-81
2021/03/26 03:08:19;;;;;;;4.82;1.10;;;22.30;86.90;;;;;;5071070;28;20393;-82
2021/03/26 03:11:03;;;;;;;2.83;1.05;;;22.20;85.60;;;;;;5071695;28;20680;-82
2021/03/26 03:13:39;;;;;;;5.25;1.20;;;22.50;85.70;;;;;;5071230;28;20370;-81
2021/03/26 03:16:37;;;;;;;2.70;0.80;;;22.60;83.40;;;;;;5071173;28;20439;-80
2021/03/26 03:19:49;;;;;;;3.15;0.77;;;22.60;81.40;;;;;;5066968;28;21228;-81
2021/03/26 03:22:54;;;;;;;2.40;0.95;;;22.80;90.00;;;;;;5070723;28;20946;-82
2021/03/26 03:25:26;;;;;;;2.60;0.90;;;23.00;85.70;;;;;;5050344;28;20382;-81
2021/03/26 03:28:24;;;;;;;4.53;1.17;;;23.10;83.80;;;;;;5054761;28;20406;-81
2021/03/26 03:31:16;;;;;;;8.95;1.60;;;23.10;82.40;;;;;;5068419;28;20433;-82
2021/03/26 03:33:48;;;;;;;2.30;0.90;;;23.10;84.30;;;;;;5066228;28;20397;-81
2021/03/26 03:39:13;;;;;;;4.20;0.93;;;23.10;84.30;;;;;;4982163;22;20431;-84
2021/03/26 03:42:00;;;;;;;3.97;1.00;;;23.20;81.30;;;;;;5041504;28;20452;-83
2021/03/26 03:44:43;;;;;;;6.22;1.50;;;23.10;84.20;;;;;;5043734;28;20400;-83
2021/03/26 03:47:20;;;;;;;2.97;1.00;;;23.30;90.50;;;;;;5059682;28;20447;-86
2021/03/26 03:49:50;;;;;;;9.38;1.90;;;23.50;92.00;;;;;;5054511;28;20893;-85
2021/03/26 03:52:38;;;;;;;7.75;1.88;;;23.60;93.30;;;;;;5060009;28;20483;-86
2021/03/26 03:55:13;;;;;;;7.95;1.80;;;23.10;94.20;;;;;;5047526;28;20949;-84
2021/03/26 03:58:08;;;;;;;9.25;2.03;;;22.70;95.40;;;;;;5044780;28;20506;-83
2021/03/26 04:00:43;;;;;;;8.52;1.65;;;22.60;98.30;;;;;;5030345;28;20404;-85
2021/03/26 04:03:23;;;;;;;8.80;1.77;;;22.30;99.30;;;;;;5050317;28;20403;-85
2021/03/26 04:06:11;;;;;;;5.80;1.30;;;21.90;99.90;;;;;;5046220;28;20909;-85
2021/03/26 04:09:05;;;;;;;5.70;1.75;;;21.70;99.90;;;;;;5052890;28;20455;-85
2021/03/26 04:11:53;;;;;;;8.02;1.52;;;21.70;99.90;;;;;;5061862;28;20412;-85
2021/03/26 04:14:27;;;;;;;6.70;1.75;;;21.60;99.90;;;;;;5041778;28;20400;-85
2021/03/26 04:17:13;;;;;;;9.87;1.80;;;21.70;99.90;;;;;;5047280;28;20853;-83
2021/03/26 04:19:48;;;;;;;5.55;1.55;;;21.90;99.90;;;;;;5036629;28;20400;-84
2021/03/26 04:22:26;;;;;;;5.60;1.10;;;22.00;99.90;;;;;;5054918;28;20392;-84
2021/03/26 04:25:25;;;;;;;6.07;1.30;;;21.90;99.90;;;;;;5046326;28;20754;-84
2021/03/26 04:28:15;;;;;;;6.53;1.53;;;21.60;99.90;;;;;;5043477;28;20406;-84
2021/03/26 04:30:53;;;;;;;5.22;1.30;;;21.40;99.90;;;;;;5035564;28;20442;-84
2021/03/26 04:33:22;;;;;;;5.63;1.30;;;21.30;99.90;;;;;;5036520;28;20412;-84
2021/03/26 04:35:51;;;;;;;6.43;1.58;;;21.20;99.90;;;;;;5056999;28;20884;-84
2021/03/26 04:38:37;;;;;;;7.47;1.60;;;21.20;99.90;;;;;;5028331;28;20505;-85
2021/03/26 04:41:21;;;;;;;5.95;1.55;;;21.00;99.90;;;;;;5047888;28;20751;-84
2021/03/26 04:44:09;;;;;;;7.00;1.55;;;20.80;99.90;;;;;;5033774;28;20440;-87
2021/03/26 04:46:35;;;;;;;6.50;1.45;;;20.60;99.90;;;;;;5060798;28;20420;-86
2021/03/26 04:49:11;;;;;;;4.18;1.35;;;20.50;99.90;;;;;;5062601;28;20391;-86
2021/03/26 04:51:42;;;;;;;9.00;1.40;;;20.50;99.90;;;;;;5047531;28;20918;-86
2021/03/26 04:54:29;;;;;;;4.63;1.52;;;20.40;99.90;;;;;;5030865;28;20441;-86
2021/03/26 04:57:12;;;;;;;6.53;1.50;;;20.30;99.90;;;;;;5061823;28;20424;-86
2021/03/26 05:00:02;;;;;;;8.57;1.50;;;20.20;99.90;;;;;;5046587;28;20449;-85
2021/03/26 05:02:32;;;;;;;11.38;2.00;;;20.20;99.90;;;;;;5054590;28;20441;-85
2021/03/26 05:05:07;;;;;;;11.10;1.63;;;20.40;99.90;;;;;;5047084;28;20511;-86
2021/03/26 05:07:37;;;;;;;6.65;1.40;;;20.50;99.90;;;;;;5048215;28;20882;-87
2021/03/26 05:10:27;;;;;;;4.93;1.02;;;20.60;99.90;;;;;;5048038;28;20530;-87
2021/03/26 05:13:04;;;;;;;4.18;1.30;;;20.70;99.90;;;;;;5054596;28;20429;-86
2021/03/26 05:15:46;;;;;;;6.95;1.45;;;20.70;99.90;;;;;;5043806;28;20759;-86
2021/03/26 05:18:34;;;;;;;8.38;1.45;;;20.80;99.90;;;;;;5044738;28;20482;-85
2021/03/26 05:21:24;;;;;;;10.93;1.53;;;20.90;99.90;;;;;;5045828;28;20403;-85
2021/03/26 05:24:35;;;;;;;10.60;1.80;;;20.90;99.90;;;;;;5047569;28;20387;-83
2021/03/26 05:27:15;;;;;;;8.33;1.70;;;20.80;99.90;;;;;;4946674;29;20459;-85
2021/03/26 05:29:42;;;;;;;5.90;1.50;;;20.70;99.90;;;;;;4947383;28;20501;-84
2021/03/26 05:32:35;;;;;;;5.28;1.30;;;20.70;99.90;;;;;;4998671;28;20446;-86
2021/03/26 05:35:22;;;;;;;5.53;1.40;;;20.70;99.90;;;;;;5037775;28;20418;-86
2021/03/26 05:38:08;;;;;;;6.00;1.42;;;20.70;99.90;;;;;;5040452;28;20446;-85
2021/03/26 05:41:01;;;;;;;6.95;1.52;;;20.50;99.90;;;;;;5049470;28;20394;-87
2021/03/26 05:43:46;;;;;;;7.18;1.73;;;20.20;99.90;;;;;;5039391;28;20399;-87
2021/03/26 05:46:32;;;;;;;4.78;1.60;;;20.10;99.90;;;;;;5047825;28;20391;-85
2021/03/26 05:49:27;;;;;;;7.55;1.30;;;19.90;99.90;;;;;;5061968;28;20383;-86
2021/03/26 05:52:27;;;;;;;7.40;1.80;;;19.90;99.90;;;;;;5045694;28;20416;-87
2021/03/26 05:55:41;;;;;;;8.27;1.30;;;19.90;99.90;;;;;;5029502;28;20392;-86
2021/03/26 05:58:41;;;;;;;5.60;1.40;;;20.10;99.90;;;;;;5029456;28;20407;-86
2021/03/26 06:01:22;;;;;;;6.65;1.40;;;20.20;99.90;;;;;;5046701;28;20391;-86
2021/03/26 06:04:04;;;;;;;3.83;1.40;;;20.20;99.90;;;;;;5046827;28;20457;-86
2021/03/26 06:06:37;;;;;;;6.32;1.20;;;20.20;99.90;;;;;;5047692;28;20405;-85
2021/03/26 06:09:43;;;;;;;5.00;1.40;;;20.10;99.90;;;;;;5029478;28;20858;-86
2021/03/26 06:12:40;;;;;;;5.30;1.43;;;20.10;99.90;;;;;;5045577;28;20454;-85
2021/03/26 06:15:25;;;;;;;5.95;1.48;;;20.00;99.90;;;;;;5046992;28;20380;-86
2021/03/26 06:18:33;;;;;;;4.88;1.20;;;20.00;99.90;;;;;;5033206;28;20545;-86
2021/03/26 06:21:27;;;;;;;8.18;1.70;;;20.00;99.90;;;;;;4949753;29;20767;-86
2021/03/26 06:24:21;;;;;;;9.38;1.80;;;20.00;99.90;;;;;;4942985;29;20761;-86
2021/03/26 06:27:00;;;;;;;6.07;1.40;;;20.10;99.90;;;;;;5029087;28;20971;-86
2021/03/26 06:29:48;;;;;;;5.22;1.20;;;20.00;99.90;;;;;;5050916;28;20429;-86
2021/03/26 06:32:53;;;;;;;6.30;1.43;;;20.00;99.90;;;;;;5051415;28;20465;-85
2021/03/26 06:35:48;;;;;;;6.20;1.60;;;20.00;99.90;;;;;;5051171;28;20459;-85
2021/03/26 06:38:49;;;;;;;6.47;1.58;;;20.00;99.90;;;;;;5015825;28;20395;-86
2021/03/26 06:41:34;;;;;;;6.43;2.45;;;20.00;99.90;;;;;;5033195;28;20395;-87
2021/03/26 06:44:27;;;;;;;9.32;3.00;;;19.90;99.90;;;;;;5049732;28;20491;-86
2021/03/26 06:46:54;;;;;;;6.53;2.08;;;19.90;99.90;;;;;;5033247;28;20380;-86
2021/03/26 06:49:48;;;;;;;6.85;1.52;;;19.90;99.90;;;;;;5051573;28;20372;-86
2021/03/26 06:52:47;;;;;;;5.32;1.27;;;19.80;99.90;;;;;;5051487;28;20411;-86
2021/03/26 06:55:52;;;;;;;4.47;1.15;;;19.80;99.90;;;;;;5050774;28;20384;-86
2021/03/26 06:58:34;;;;;;;5.00;1.35;;;19.70;99.90;;;;;;5051178;28;20384;-85
2021/03/26 07:01:20;;;;;;;4.97;1.50;;;19.60;99.90;;;;;;5050794;28;20398;-86
2021/03/26 07:04:11;;;;;;;5.07;1.10;;;19.50;99.90;;;;;;5050621;28;20743;-87
2021/03/26 07:07:14;;;;;;;4.85;1.48;;;19.50;99.90;;;;;;5050864;28;20407;-86
2021/03/26 07:10:09;;;;;;;6.47;1.52;;;19.50;99.90;;;;;;5050703;28;20371;-86
2021/03/26 07:12:40;;;;;;;5.10;1.57;;;19.40;99.90;;;;;;5050367;28;20491;-86
2021/03/26 07:15:17;;;;;;;5.60;1.42;;;19.40;99.90;;;;;;5050421;28;20870;-86
2021/03/26 07:18:10;;;;;;;4.97;1.38;;;19.30;99.90;;;;;;5050701;28;20461;-86
2021/03/26 07:20:58;;;;;;;5.97;1.58;;;19.20;99.90;;;;;;5049420;28;20395;-85
2021/03/26 07:23:46;;;;;;;6.27;1.67;;;19.10;99.90;;;;;;5026608;28;20800;-85
2021/03/26 07:26:33;;;;;;;5.95;1.65;;;19.10;99.90;;;;;;5032255;28;20442;-85
2021/03/26 07:29:30;;;;;;;5.38;1.30;;;19.10;99.90;;;;;;5063427;28;20392;-86
2021/03/26 07:32:28;;;;;;;4.85;1.20;;;19.10;99.90;;;;;;5036765;28;20411;-86
2021/03/26 07:34:58;;;;;;;8.50;1.98;;;19.00;99.90;;;;;;5049516;28;20462;-88
2021/03/26 07:38:03;;;;;;;7.68;1.85;;;19.00;99.90;;;;;;5039171;28;20386;-86
2021/03/26 07:40:36;;;;;;;8.35;1.40;;;18.90;99.90;;;;;;5046330;28;20407;-87
2021/03/26 07:43:21;;;;;;;6.72;1.50;;;18.90;99.90;;;;;;5046815;28;20889;-86
2021/03/26 07:46:31;;;;;;;7.75;1.60;;;18.70;99.90;;;;;;5034898;28;20421;-86
2021/03/26 07:49:18;;;;;;;7.95;1.60;;;18.70;99.90;;;;;;4986663;28;20431;-85
2021/03/26 07:52:04;;;;;;;9.40;1.47;;;18.60;99.90;;;;;;5052284;28;20556;-86
2021/03/26 07:54:34;;;;;;;9.77;1.73;;;18.60;99.90;;;;;;5049921;28;20363;-86
2021/03/26 08:01:07;;;;;;;5.57;1.30;;;18.40;99.90;;;;;;4843671;29;20493;-87
2021/03/26 08:31:26;;;;;;;8.57;1.70;;;18.00;99.90;;;;;;5086540;28;20369;-83
2021/03/26 08:34:15;;;;;;;8.18;1.80;;;17.70;99.90;;;;;;5085726;28;20464;-83
2021/03/26 08:37:20;;;;;;;9.68;3.03;;;17.60;99.90;;;;;;5087979;28;21127;-86
2021/03/26 08:40:16;;;;;;;9.40;2.67;;;17.60;99.90;;;;;;5085275;28;21009;-82
2021/03/26 08:42:50;;;;;;;10.98;2.40;;;17.60;99.90;;;;;;5086250;28;20373;-84
2021/03/26 08:45:26;;;;;;;8.75;2.20;;;17.50;99.90;;;;;;5088495;28;20416;-85
2021/03/26 08:48:11;;;;;;;10.23;2.10;;;17.50;99.90;;;;;;5084437;28;20381;-83
2021/03/26 08:51:00;;;;;;;8.50;1.90;;;17.50;99.90;;;;;;5084248;28;20386;-83
2021/03/26 08:53:57;;;;;;;10.30;2.25;;;17.40;99.90;;;;;;5078063;28;20426;-84
2021/03/26 08:56:56;;;;;;;10.73;2.40;;;17.40;99.90;;;;;;5076452;28;20377;-87
2021/03/26 09:00:07;;;;;;;10.73;2.03;;;17.50;99.90;;;;;;5082505;28;20417;-86
2021/03/26 09:02:49;;;;;;;9.45;2.00;;;17.40;99.90;;;;;;5077131;28;20884;-87
2021/03/26 10:35:27;;;;;;;8.20;1.95;;;17.10;99.90;;;;;;4765460;29;1845609;-84
2021/03/26 10:38:12;;;;;;;6.17;1.70;;;17.00;99.90;;;;;;4840729;29;20412;-85
2021/03/26 11:24:40;;;;;;;8.27;1.50;;;17.30;99.90;;;;;;5104603;27;20947;-84
2021/03/26 11:27:25;;;;;;;10.27;2.00;;;17.20;99.90;;;;;;5107038;28;20364;-85
2021/03/26 11:30:33;;;;;;;8.68;1.80;;;17.30;99.90;;;;;;5106513;28;20788;-83
2021/03/26 11:33:34;;;;;;;9.03;1.90;;;17.30;99.90;;;;;;5090777;28;20375;-84
2021/03/26 11:36:28;;;;;;;9.82;1.80;;;17.30;99.90;;;;;;5106511;28;20908;-84
2021/03/26 11:39:41;;;;;;;7.32;1.52;;;17.30;99.90;;;;;;5091455;28;20414;-84
2021/03/26 11:42:08;;;;;;;7.07;1.60;;;17.30;99.90;;;;;;5097685;28;20683;-84
2021/03/26 11:44:43;;;;;;;8.00;1.48;;;17.20;99.90;;;;;;5103396;28;20455;-84
2021/03/26 11:47:32;;;;;;;9.68;1.67;;;17.20;99.90;;;;;;5102810;28;20383;-84
2021/03/26 11:50:28;;;;;;;6.88;1.58;;;17.10;99.90;;;;;;5103186;28;20464;-85
2021/03/26 11:53:47;;;;;;;7.72;1.35;;;17.00;99.90;;;;;;5101722;28;20387;-85
2021/03/26 11:56:30;;;;;;;8.10;1.30;;;17.00;99.90;;;;;;5074743;28;20387;-84
2021/03/26 11:59:36;;;;;;;7.18;1.52;;;17.00;99.90;;;;;;5102980;28;20371;-84
2021/03/26 12:02:20;;;;;;;8.40;1.60;;;17.00;99.90;;;;;;5100552;28;20412;-83
2021/03/26 12:04:56;;;;;;;9.55;1.95;;;17.00;99.90;;;;;;5102603;28;20810;-84
2021/03/26 12:07:38;;;;;;;8.67;1.90;;;16.90;99.90;;;;;;5105533;28;20467;-83
2021/03/26 12:10:08;;;;;;;4.40;1.42;;;16.90;99.90;;;;;;5104593;28;20509;-84
2021/03/26 12:12:44;;;;;;;6.03;1.67;;;16.90;99.90;;;;;;5105950;28;20375;-84
2021/03/26 12:15:27;;;;;;;7.70;1.70;;;16.90;99.90;;;;;;5105208;28;20890;-84
2021/03/26 12:18:03;;;;;;;8.60;2.10;;;17.00;99.90;;;;;;5104320;28;20391;-85
2021/03/26 12:20:39;;;;;;;9.27;1.60;;;17.00;99.90;;;;;;5105655;28;20368;-84
2021/03/26 12:23:33;;;;;;;7.20;1.90;;;17.00;99.90;;;;;;5105042;28;20406;-83
2021/03/26 12:26:12;;;;;;;6.85;1.60;;;17.00;99.90;;;;;;5085200;28;20865;-85
2021/03/26 12:29:04;;;;;;;6.97;1.73;;;17.10;99.90;;;;;;5104220;28;20376;-84
2021/03/26 12:31:40;;;;;;;9.40;1.75;;;17.00;99.90;;;;;;5105718;28;20444;-84
2021/03/26 12:34:13;;;;;;;9.75;1.90;;;17.00;99.90;;;;;;5099239;28;20376;-84
2021/03/26 12:36:48;;;;;;;7.30;1.70;;;17.00;99.90;;;;;;5091962;28;20858;-82
2021/03/26 12:39:44;;;;;;;7.60;1.67;;;17.00;99.90;;;;;;5090457;28;20901;-84
2021/03/26 12:42:15;;;;;;;5.10;1.45;;;17.00;99.90;;;;;;5090306;28;20376;-85
2021/03/26 12:44:54;;;;;;;5.78;1.55;;;17.00;99.90;;;;;;5091385;28;20868;-84
2021/03/26 12:47:35;;;;;;;7.38;1.50;;;17.00;99.90;;;;;;5091413;28;20384;-84
2021/03/26 12:50:16;;;;;;;6.20;1.60;;;16.90;99.90;;;;;;5084463;28;20380;-83
2021/03/26 12:53:17;;;;;;;8.52;1.88;;;16.80;99.90;;;;;;5091768;28;20447;-84
2021/03/26 12:56:02;;;;;;;6.63;1.75;;;16.80;99.90;;;;;;5075247;28;20806;-86
2021/03/26 12:59:07;;;;;;;7.93;1.65;;;16.80;99.90;;;;;;5089740;28;20379;-83
2021/03/26 13:01:52;;;;;;;6.70;1.80;;;16.80;99.90;;;;;;5090252;28;20486;-84
2021/03/26 13:05:01;;;;;;;6.82;1.60;;;16.80;99.90;;;;;;5091193;28;20433;-82
2021/03/26 13:08:04;;;;;;;8.50;1.85;;;16.80;99.90;;;;;;5089933;28;20739;-84
2021/03/26 13:10:40;;;;;;;8.38;1.83;;;16.90;99.90;;;;;;5071063;28;20385;-84
2021/03/26 13:13:25;;;;;;;6.77;1.53;;;16.90;99.90;;;;;;5070909;28;20841;-84
2021/03/26 13:16:16;;;;;;;6.95;1.58;;;16.80;99.90;;;;;;5069362;28;20418;-84
2021/03/26 13:19:12;;;;;;;7.83;1.73;;;16.90;99.90;;;;;;5070656;28;20794;-83
2021/03/26 13:22:00;;;;;;;7.20;1.53;;;16.90;99.90;;;;;;5063172;28;20757;-83
2021/03/26 13:24:37;;;;;;;6.82;1.45;;;16.90;99.90;;;;;;5070938;28;20401;-83
2021/03/26 13:27:19;;;;;;;7.95;1.58;;;16.90;99.90;;;;;;5078478;28;20392;-83
2021/03/26 16:19:50;;;;;;;9.17;1.80;;;16.40;99.90;;;;;;5127190;27;20358;-83
2021/03/26 16:29:21;;;;;;;6.60;2.00;;;16.40;99.90;;;;;;4971136;28;20782;-83
2021/03/26 16:32:17;;;;;;;7.53;1.90;;;16.40;99.90;;;;;;5121978;27;20382;-83
2021/03/26 16:35:13;;;;;;;8.68;1.67;;;16.40;99.90;;;;;;5127011;27;20426;-83
2021/03/26 16:37:53;;;;;;;8.30;1.92;;;16.30;99.90;;;;;;5126749;27;20829;-83
2021/03/26 16:40:31;;;;;;;8.07;1.70;;;16.20;99.90;;;;;;5125501;28;20456;-82
2021/03/26 16:43:03;;;;;;;8.88;2.17;;;16.00;99.90;;;;;;5126350;27;20386;-83
2021/03/26 16:46:17;;;;;;;6.80;1.90;;;15.90;99.90;;;;;;5126925;27;20358;-82
2021/03/26 16:49:03;;;;;;;10.90;1.88;;;15.80;99.90;;;;;;5146496;27;20474;-82
2021/03/26 16:51:52;;;;;;;7.63;1.70;;;15.80;99.90;;;;;;5126269;27;20748;-82
2021/03/26 16:58:02;;;;;;;9.13;2.10;;;15.60;99.90;;;;;;5126062;27;20466;-83
2021/03/26 17:00:44;;;;;;;10.53;2.20;;;15.60;99.90;;;;;;5126875;28;20378;-83
2021/03/26 17:03:30;;;;;;;8.57;1.98;;;15.70;99.90;;;;;;5126061;27;20369;-83
2021/03/26 17:06:52;;;;;;;6.75;1.63;;;15.90;99.90;;;;;;5126427;27;20514;-83
2021/03/26 17:09:47;;;;;;;7.57;1.73;;;16.00;99.90;;;;;;5124790;28;20771;-84
2021/03/26 17:12:44;;;;;;;8.67;1.83;;;16.10;99.90;;;;;;5126057;27;20382;-83
2021/03/26 17:15:36;;;;;;;5.45;1.63;;;16.20;99.90;;;;;;5124957;28;20449;-83
2021/03/26 17:18:40;;;;;;;11.07;1.67;;;16.20;99.90;;;;;;5123157;27;20754;-83
2021/03/26 17:21:38;;;;;;;7.30;1.50;;;16.20;99.90;;;;;;5124741;27;20461;-82
2021/03/26 17:24:32;;;;;;;9.57;1.70;;;16.30;99.90;;;;;;5138818;27;20364;-82
2021/03/26 17:27:17;;;;;;;5.10;1.30;;;16.20;99.90;;;;;;5118182;28;20370;-83
2021/03/26 17:29:58;;;;;;;6.30;1.65;;;16.20;99.90;;;;;;5116360;28;20899;-83
2021/03/26 17:33:04;;;;;;;7.25;1.60;;;16.20;99.90;;;;;;5112378;28;20453;-84
2021/03/26 17:35:49;;;;;;;6.65;1.70;;;16.30;99.90;;;;;;5112110;28;20386;-83
2021/03/26 17:38:55;;;;;;;6.85;1.70;;;16.30;99.90;;;;;;5111930;28;20417;-84
2021/03/26 17:41:47;;;;;;;6.10;1.52;;;16.40;99.90;;;;;;5110697;28;20896;-83
2021/03/26 17:44:32;;;;;;;7.67;1.50;;;16.40;99.90;;;;;;5113060;27;20378;-84
2021/03/26 17:47:04;;;;;;;5.70;1.40;;;16.40;99.90;;;;;;5111868;28;20394;-82
2021/03/26 17:50:08;;;;;;;8.48;1.80;;;16.40;99.90;;;;;;5110451;28;20795;-83
2021/03/26 17:52:53;;;;;;;7.53;1.60;;;16.40;99.90;;;;;;5111766;28;20465;-83
2021/03/26 17:55:58;;;;;;;8.32;1.77;;;16.50;99.90;;;;;;5112083;28;20398;-83
2021/03/26 17:58:51;;;;;;;6.73;1.67;;;16.50;99.90;;;;;;5111436;28;20408;-83
2021/03/26 18:01:44;;;;;;;6.07;1.70;;;16.60;99.90;;;;;;5111957;28;20375;-84
2021/03/26 18:04:17;;;;;;;5.63;1.27;;;16.60;99.90;;;;;;5111665;28;20869;-84
2021/03/26 18:07:06;;;;;;;8.05;1.35;;;16.60;99.90;;;;;;5110354;28;20736;-83
2021/03/26 18:09:43;;;;;;;5.60;1.67;;;16.60;99.90;;;;;;5111549;28;20381;-83
2021/03/26 18:12:17;;;;;;;9.23;1.50;;;16.60;99.90;;;;;;5110815;28;20395;-84
2021/03/26 18:15:00;;;;;;;7.07;1.50;;;16.50;99.90;;;;;;5109836;28;20382;-84
2021/03/26 18:17:27;;;;;;;6.30;1.60;;;16.50;99.90;;;;;;5109820;28;20401;-84
2021/03/26 18:20:07;;;;;;;8.05;1.92;;;16.50;99.90;;;;;;5111435;28;20986;-84
2021/03/26 18:23:04;;;;;;;7.13;1.80;;;16.40;99.90;;;;;;5111283;28;20739;-84
2021/03/26 18:25:42;;;;;;;8.30;1.52;;;16.30;99.90;;;;;;5110437;28;20382;-84
2021/03/26 18:29:02;;;;;;;8.02;1.85;;;16.20;99.90;;;;;;5111263;28;20883;-82
2021/03/26 18:32:16;;;;;;;8.13;2.05;;;16.10;99.90;;;;;;5111149;28;20375;-83
2021/03/26 18:35:02;;;;;;;5.50;1.70;;;15.90;99.90;;;;;;5064121;28;20379;-83
2021/03/26 18:37:30;;;;;;;8.10;1.70;;;15.80;99.90;;;;;;5110632;28;20402;-83
2021/03/26 18:40:09;;;;;;;7.35;1.70;;;15.80;99.90;;;;;;5111082;28;20390;-84
2021/03/26 18:43:13;;;;;;;7.78;1.58;;;15.80;99.90;;;;;;5108600;28;20508;-83
2021/03/26 18:45:58;;;;;;;7.07;1.90;;;15.90;99.90;;;;;;5110750;28;20482;-82
2021/03/26 18:49:05;;;;;;;6.43;1.70;;;16.00;99.90;;;;;;5110372;28;20410;-83
2021/03/26 18:51:49;;;;;;;7.53;1.60;;;15.90;99.90;;;;;;5068600;28;20449;-83
2021/03/26 18:54:22;;;;;;;9.07;2.10;;;15.90;99.90;;;;;;5109386;28;20379;-82
2021/03/26 18:57:13;;;;;;;7.85;1.90;;;15.90;99.90;;;;;;5109261;28;20903;-81
2021/03/26 19:00:04;;;;;;;6.22;1.73;;;15.90;99.90;;;;;;5110283;27;20590;-83
2021/03/26 19:02:58;;;;;;;11.82;2.20;;;15.80;99.90;;;;;;5110250;28;20374;-83
2021/03/26 19:05:44;;;;;;;7.47;2.03;;;15.70;99.90;;;;;;5110162;28;20448;-84
2021/03/26 19:08:30;;;;;;;8.18;2.03;;;15.60;99.90;;;;;;5110464;28;20363;-84
2021/03/26 19:11:18;;;;;;;8.50;2.03;;;15.50;99.90;;;;;;5110551;28;20511;-84
2021/03/26 19:13:57;;;;;;;7.35;1.70;;;15.40;99.90;;;;;;5109724;28;20414;-83
2021/03/26 19:16:37;;;;;;;9.70;1.77;;;15.40;99.90;;;;;;5110217;28;20378;-83
2021/03/26 19:19:24;;;;;;;5.05;1.50;;;15.40;99.90;;;;;;5109853;28;20406;-81
2021/03/26 19:22:08;;;;;;;6.85;1.70;;;15.40;99.90;;;;;;5110015;28;20768;-83
2021/03/26 19:24:55;;;;;;;7.20;1.60;;;15.40;99.90;;;;;;5107951;28;20390;-83
2021/03/26 19:28:02;;;;;;;6.80;1.73;;;15.30;99.90;;;;;;5110267;28;20377;-83
2021/03/26 19:30:35;;;;;;;7.03;1.60;;;15.20;99.90;;;;;;5107079;28;20431;-83
2021/03/26 19:33:28;;;;;;;4.43;1.50;;;15.20;99.90;;;;;;5108201;28;20526;-82
2021/03/26 19:36:16;;;;;;;6.90;1.63;;;15.10;99.90;;;;;;5108545;28;20497;-81
2021/03/26 19:39:12;;;;;;;6.32;1.38;;;15.10;99.90;;;;;;5108088;28;20421;-82
2021/03/26 19:42:01;;;;;;;7.95;2.13;;;15.00;99.90;;;;;;5109901;28;20466;-82
2021/03/26 19:44:57;;;;;;;6.65;1.77;;;15.00;99.90;;;;;;5108207;28;20378;-82
2021/03/26 19:47:56;;;;;;;6.43;1.70;;;15.00;99.90;;;;;;5108636;28;20379;-82
2021/03/26 19:50:45;;;;;;;7.88;1.70;;;14.90;99.90;;;;;;5083566;28;20393;-82
2021/03/26 19:53:21;;;;;;;7.72;1.70;;;14.80;99.90;;;;;;5118029;27;20381;-82
2021/03/26 19:56:18;;;;;;;7.72;1.92;;;14.80;99.90;;;;;;5109913;28;20367;-82
2021/03/26 19:58:51;;;;;;;7.80;1.85;;;14.70;99.90;;;;;;5107736;28;20423;-81
2021/03/26 20:01:20;;;;;;;11.38;2.70;;;14.80;99.90;;;;;;5108273;28;20382;-82
2021/03/26 20:04:05;;;;;;;9.40;2.50;;;14.80;99.90;;;;;;5109865;28;20382;-82
2021/03/26 20:07:01;;;;;;;12.20;3.33;;;14.80;99.90;;;;;;5106999;28;20900;-81